sensor_id;sensor_type;location;lat;lon;timestamp;P1;durP1;ratioP1;P2;durP2;ratioP2
25503;SDS011;13410;52.114;5.718;2023-04-19T00:00:31;14.45;;;9.15;;
25503;SDS011;13410;52.114;5.718;2023-04-19T00:02:56;14.75;;;10.35;;
25503;SDS011;13410;52.114;5.718;2023-04-19T00:05:22;15.82;;;10.57;;
25503;SDS011;13410;52.114;5.718;2023-04-19T00:07:49;14.23;;;9.90;;
25503;SDS011;13410;52.114;5.718;2023-04-19T00:10:15;15.40;;;9.63;;
25503;SDS011;13410;52.114;5.718;2023-04-19T00:12:41;16.40;;;10.35;;
25503;SDS011;13410;52.114;5.718;2023-04-19T00:15:06;14.88;;;10.23;;
25503;SDS011;13410;52.114;5.718;2023-04-19T00:17:32;14.38;;;10.05;;
25503;SDS011;13410;52.114;5.718;2023-04-19T00:19:58;15.07;;;10.15;;
25503;SDS011;13410;52.114;5.718;2023-04-19T00:22:24;14.75;;;10.18;;
25503;SDS011;13410;52.114;5.718;2023-04-19T00:24:50;15.85;;;10.43;;
25503;SDS011;13410;52.114;5.718;2023-04-19T00:27:16;17.02;;;10.82;;
25503;SDS011;13410;52.114;5.718;2023-04-19T00:29:42;14.32;;;9.73;;
25503;SDS011;13410;52.114;5.718;2023-04-19T00:32:08;19.08;;;11.52;;
25503;SDS011;13410;52.114;5.718;2023-04-19T00:34:33;16.17;;;10.40;;
25503;SDS011;13410;52.114;5.718;2023-04-19T00:37:02;16.48;;;10.20;;
25503;SDS011;13410;52.114;5.718;2023-04-19T00:39:30;17.15;;;11.20;;
25503;SDS011;13410;52.114;5.718;2023-04-19T00:41:56;15.90;;;11.35;;
25503;SDS011;13410;52.114;5.718;2023-04-19T00:44:22;15.68;;;10.95;;
25503;SDS011;13410;52.114;5.718;2023-04-19T00:46:48;14.90;;;10.55;;
25503;SDS011;13410;52.114;5.718;2023-04-19T00:49:15;15.90;;;10.48;;
25503;SDS011;13410;52.114;5.718;2023-04-19T00:51:41;16.33;;;11.00;;
25503;SDS011;13410;52.114;5.718;2023-04-19T00:54:07;17.35;;;10.88;;
25503;SDS011;13410;52.114;5.718;2023-04-19T00:56:33;18.02;;;11.38;;
25503;SDS011;13410;52.114;5.718;2023-04-19T00:59:00;16.83;;;11.40;;
25503;SDS011;13410;52.114;5.718;2023-04-19T01:01:26;17.05;;;11.10;;
25503;SDS011;13410;52.114;5.718;2023-04-19T01:03:52;16.98;;;11.02;;
25503;SDS011;13410;52.114;5.718;2023-04-19T01:06:18;19.40;;;11.93;;
25503;SDS011;13410;52.114;5.718;2023-04-19T01:08:44;17.98;;;11.68;;
25503;SDS011;13410;52.114;5.718;2023-04-19T01:11:10;16.42;;;11.30;;
25503;SDS011;13410;52.114;5.718;2023-04-19T01:13:36;20.08;;;11.65;;
25503;SDS011;13410;52.114;5.718;2023-04-19T01:16:01;17.77;;;10.95;;
25503;SDS011;13410;52.114;5.718;2023-04-19T01:18:27;22.45;;;11.55;;
25503;SDS011;13410;52.114;5.718;2023-04-19T01:21:01;19.20;;;11.38;;
25503;SDS011;13410;52.114;5.718;2023-04-19T01:23:27;17.35;;;11.65;;
25503;SDS011;13410;52.114;5.718;2023-04-19T01:25:52;15.88;;;11.52;;
25503;SDS011;13410;52.114;5.718;2023-04-19T01:28:18;18.60;;;11.73;;
25503;SDS011;13410;52.114;5.718;2023-04-19T01:30:43;18.27;;;11.77;;
25503;SDS011;13410;52.114;5.718;2023-04-19T01:33:09;17.48;;;11.60;;
25503;SDS011;13410;52.114;5.718;2023-04-19T01:35:34;20.42;;;12.75;;
25503;SDS011;13410;52.114;5.718;2023-04-19T01:38:00;17.83;;;11.30;;
25503;SDS011;13410;52.114;5.718;2023-04-19T01:40:26;17.58;;;12.13;;
25503;SDS011;13410;52.114;5.718;2023-04-19T01:42:51;17.70;;;12.15;;
25503;SDS011;13410;52.114;5.718;2023-04-19T01:45:17;15.68;;;10.45;;
25503;SDS011;13410;52.114;5.718;2023-04-19T01:47:43;17.27;;;12.10;;
25503;SDS011;13410;52.114;5.718;2023-04-19T01:50:09;16.75;;;11.55;;
25503;SDS011;13410;52.114;5.718;2023-04-19T01:52:34;16.45;;;11.65;;
25503;SDS011;13410;52.114;5.718;2023-04-19T01:55:00;19.42;;;12.20;;
25503;SDS011;13410;52.114;5.718;2023-04-19T01:57:26;19.45;;;11.45;;
25503;SDS011;13410;52.114;5.718;2023-04-19T01:59:52;17.25;;;11.13;;
25503;SDS011;13410;52.114;5.718;2023-04-19T02:02:18;17.92;;;12.00;;
25503;SDS011;13410;52.114;5.718;2023-04-19T02:04:44;16.27;;;11.38;;
25503;SDS011;13410;52.114;5.718;2023-04-19T02:07:09;17.48;;;11.70;;
25503;SDS011;13410;52.114;5.718;2023-04-19T02:09:35;16.98;;;11.15;;
25503;SDS011;13410;52.114;5.718;2023-04-19T02:12:02;18.65;;;11.40;;
25503;SDS011;13410;52.114;5.718;2023-04-19T02:14:28;16.05;;;11.10;;
25503;SDS011;13410;52.114;5.718;2023-04-19T02:16:54;16.85;;;11.48;;
25503;SDS011;13410;52.114;5.718;2023-04-19T02:19:19;16.73;;;11.80;;
25503;SDS011;13410;52.114;5.718;2023-04-19T02:21:45;16.73;;;10.95;;
25503;SDS011;13410;52.114;5.718;2023-04-19T02:24:11;17.05;;;11.38;;
25503;SDS011;13410;52.114;5.718;2023-04-19T02:26:36;17.65;;;11.45;;
25503;SDS011;13410;52.114;5.718;2023-04-19T02:29:03;17.05;;;11.15;;
25503;SDS011;13410;52.114;5.718;2023-04-19T02:31:28;17.92;;;12.38;;
25503;SDS011;13410;52.114;5.718;2023-04-19T02:33:54;16.48;;;11.50;;
25503;SDS011;13410;52.114;5.718;2023-04-19T02:36:19;18.45;;;12.18;;
25503;SDS011;13410;52.114;5.718;2023-04-19T02:38:45;15.20;;;10.52;;
25503;SDS011;13410;52.114;5.718;2023-04-19T02:41:10;14.63;;;9.93;;
25503;SDS011;13410;52.114;5.718;2023-04-19T02:43:36;13.38;;;9.23;;
25503;SDS011;13410;52.114;5.718;2023-04-19T02:46:02;15.50;;;10.80;;
25503;SDS011;13410;52.114;5.718;2023-04-19T02:48:27;17.40;;;10.27;;
25503;SDS011;13410;52.114;5.718;2023-04-19T02:50:53;17.63;;;9.85;;
25503;SDS011;13410;52.114;5.718;2023-04-19T02:53:19;13.75;;;9.60;;
25503;SDS011;13410;52.114;5.718;2023-04-19T02:55:44;15.43;;;10.30;;
25503;SDS011;13410;52.114;5.718;2023-04-19T02:58:10;15.35;;;10.32;;
25503;SDS011;13410;52.114;5.718;2023-04-19T03:00:35;14.25;;;9.15;;
25503;SDS011;13410;52.114;5.718;2023-04-19T03:03:01;15.63;;;9.57;;
25503;SDS011;13410;52.114;5.718;2023-04-19T03:05:28;13.70;;;9.52;;
25503;SDS011;13410;52.114;5.718;2023-04-19T03:07:54;17.55;;;9.40;;
25503;SDS011;13410;52.114;5.718;2023-04-19T03:10:19;17.02;;;9.93;;
25503;SDS011;13410;52.114;5.718;2023-04-19T03:12:45;14.77;;;9.93;;
25503;SDS011;13410;52.114;5.718;2023-04-19T03:15:11;15.57;;;8.52;;
25503;SDS011;13410;52.114;5.718;2023-04-19T03:17:36;13.23;;;8.43;;
25503;SDS011;13410;52.114;5.718;2023-04-19T03:20:02;13.57;;;8.10;;
25503;SDS011;13410;52.114;5.718;2023-04-19T03:22:33;13.38;;;7.50;;
25503;SDS011;13410;52.114;5.718;2023-04-19T03:24:59;15.70;;;8.43;;
25503;SDS011;13410;52.114;5.718;2023-04-19T03:27:24;14.85;;;8.95;;
25503;SDS011;13410;52.114;5.718;2023-04-19T03:29:50;15.20;;;8.65;;
25503;SDS011;13410;52.114;5.718;2023-04-19T03:32:16;15.07;;;8.82;;
25503;SDS011;13410;52.114;5.718;2023-04-19T03:34:42;15.85;;;9.70;;
25503;SDS011;13410;52.114;5.718;2023-04-19T03:37:08;15.23;;;9.23;;
25503;SDS011;13410;52.114;5.718;2023-04-19T03:39:33;15.85;;;9.57;;
25503;SDS011;13410;52.114;5.718;2023-04-19T03:41:59;15.77;;;9.07;;
25503;SDS011;13410;52.114;5.718;2023-04-19T03:44:25;14.82;;;9.23;;
25503;SDS011;13410;52.114;5.718;2023-04-19T03:46:51;10.65;;;7.38;;
25503;SDS011;13410;52.114;5.718;2023-04-19T03:49:16;14.60;;;9.30;;
25503;SDS011;13410;52.114;5.718;2023-04-19T03:51:42;14.50;;;8.15;;
25503;SDS011;13410;52.114;5.718;2023-04-19T03:54:08;14.85;;;9.13;;
25503;SDS011;13410;52.114;5.718;2023-04-19T03:56:33;14.82;;;8.52;;
25503;SDS011;13410;52.114;5.718;2023-04-19T03:58:59;16.08;;;9.07;;
25503;SDS011;13410;52.114;5.718;2023-04-19T04:01:25;13.32;;;9.38;;
25503;SDS011;13410;52.114;5.718;2023-04-19T04:03:50;12.43;;;8.60;;
25503;SDS011;13410;52.114;5.718;2023-04-19T04:06:16;14.02;;;8.77;;
25503;SDS011;13410;52.114;5.718;2023-04-19T04:08:42;15.68;;;9.45;;
25503;SDS011;13410;52.114;5.718;2023-04-19T04:11:07;19.15;;;10.80;;
25503;SDS011;13410;52.114;5.718;2023-04-19T04:13:33;14.82;;;8.90;;
25503;SDS011;13410;52.114;5.718;2023-04-19T04:15:58;17.05;;;9.95;;
25503;SDS011;13410;52.114;5.718;2023-04-19T04:18:24;15.52;;;9.82;;
25503;SDS011;13410;52.114;5.718;2023-04-19T04:20:52;12.90;;;8.00;;
25503;SDS011;13410;52.114;5.718;2023-04-19T04:23:18;14.90;;;10.27;;
25503;SDS011;13410;52.114;5.718;2023-04-19T04:25:45;15.15;;;9.27;;
25503;SDS011;13410;52.114;5.718;2023-04-19T04:28:11;19.63;;;10.77;;
25503;SDS011;13410;52.114;5.718;2023-04-19T04:30:37;15.18;;;10.23;;
25503;SDS011;13410;52.114;5.718;2023-04-19T04:33:04;16.20;;;9.48;;
25503;SDS011;13410;52.114;5.718;2023-04-19T04:35:30;15.68;;;10.60;;
25503;SDS011;13410;52.114;5.718;2023-04-19T04:37:55;15.00;;;9.88;;
25503;SDS011;13410;52.114;5.718;2023-04-19T04:40:21;16.42;;;10.55;;
25503;SDS011;13410;52.114;5.718;2023-04-19T04:42:47;15.55;;;11.00;;
25503;SDS011;13410;52.114;5.718;2023-04-19T04:45:13;18.20;;;10.95;;
25503;SDS011;13410;52.114;5.718;2023-04-19T04:47:42;17.20;;;10.95;;
25503;SDS011;13410;52.114;5.718;2023-04-19T04:50:07;20.23;;;10.75;;
25503;SDS011;13410;52.114;5.718;2023-04-19T04:52:33;18.70;;;10.38;;
25503;SDS011;13410;52.114;5.718;2023-04-19T04:54:59;16.88;;;10.38;;
25503;SDS011;13410;52.114;5.718;2023-04-19T04:57:24;17.38;;;10.65;;
25503;SDS011;13410;52.114;5.718;2023-04-19T04:59:50;16.33;;;9.90;;
25503;SDS011;13410;52.114;5.718;2023-04-19T05:02:15;15.73;;;9.50;;
25503;SDS011;13410;52.114;5.718;2023-04-19T05:04:41;16.65;;;10.23;;
25503;SDS011;13410;52.114;5.718;2023-04-19T05:07:06;17.10;;;10.30;;
25503;SDS011;13410;52.114;5.718;2023-04-19T05:09:32;17.05;;;10.13;;
25503;SDS011;13410;52.114;5.718;2023-04-19T05:11:57;15.05;;;10.30;;
25503;SDS011;13410;52.114;5.718;2023-04-19T05:14:23;13.77;;;9.63;;
25503;SDS011;13410;52.114;5.718;2023-04-19T05:16:49;13.52;;;9.70;;
25503;SDS011;13410;52.114;5.718;2023-04-19T05:19:14;15.13;;;9.40;;
25503;SDS011;13410;52.114;5.718;2023-04-19T05:21:40;15.27;;;9.40;;
25503;SDS011;13410;52.114;5.718;2023-04-19T05:24:05;14.25;;;9.00;;
25503;SDS011;13410;52.114;5.718;2023-04-19T05:26:33;14.10;;;8.80;;
25503;SDS011;13410;52.114;5.718;2023-04-19T05:28:59;13.52;;;8.77;;
25503;SDS011;13410;52.114;5.718;2023-04-19T05:31:25;16.55;;;9.45;;
25503;SDS011;13410;52.114;5.718;2023-04-19T05:33:50;12.18;;;8.07;;
25503;SDS011;13410;52.114;5.718;2023-04-19T05:36:16;12.95;;;7.57;;
25503;SDS011;13410;52.114;5.718;2023-04-19T05:38:41;11.57;;;7.50;;
25503;SDS011;13410;52.114;5.718;2023-04-19T05:41:07;10.55;;;7.38;;
25503;SDS011;13410;52.114;5.718;2023-04-19T05:43:32;13.55;;;7.38;;
25503;SDS011;13410;52.114;5.718;2023-04-19T05:45:58;11.35;;;6.55;;
25503;SDS011;13410;52.114;5.718;2023-04-19T05:48:23;11.88;;;6.78;;
25503;SDS011;13410;52.114;5.718;2023-04-19T05:50:49;8.70;;;5.93;;
25503;SDS011;13410;52.114;5.718;2023-04-19T05:53:18;13.88;;;5.93;;
25503;SDS011;13410;52.114;5.718;2023-04-19T05:55:43;10.13;;;6.20;;
25503;SDS011;13410;52.114;5.718;2023-04-19T05:58:09;13.50;;;6.25;;
25503;SDS011;13410;52.114;5.718;2023-04-19T06:00:35;10.45;;;5.93;;
25503;SDS011;13410;52.114;5.718;2023-04-19T06:03:01;9.50;;;6.20;;
25503;SDS011;13410;52.114;5.718;2023-04-19T06:05:26;11.15;;;6.30;;
25503;SDS011;13410;52.114;5.718;2023-04-19T06:07:52;13.52;;;5.82;;
25503;SDS011;13410;52.114;5.718;2023-04-19T06:10:20;9.27;;;5.80;;
25503;SDS011;13410;52.114;5.718;2023-04-19T06:12:46;8.25;;;5.50;;
25503;SDS011;13410;52.114;5.718;2023-04-19T06:15:12;7.15;;;5.50;;
25503;SDS011;13410;52.114;5.718;2023-04-19T06:17:37;8.95;;;5.70;;
25503;SDS011;13410;52.114;5.718;2023-04-19T06:20:03;11.40;;;6.03;;
25503;SDS011;13410;52.114;5.718;2023-04-19T06:22:31;9.73;;;5.55;;
25503;SDS011;13410;52.114;5.718;2023-04-19T06:24:57;9.10;;;5.55;;
25503;SDS011;13410;52.114;5.718;2023-04-19T06:27:22;9.15;;;5.20;;
25503;SDS011;13410;52.114;5.718;2023-04-19T06:29:48;10.93;;;5.25;;
25503;SDS011;13410;52.114;5.718;2023-04-19T06:32:13;8.63;;;5.35;;
25503;SDS011;13410;52.114;5.718;2023-04-19T06:34:39;8.95;;;5.00;;
25503;SDS011;13410;52.114;5.718;2023-04-19T06:37:04;6.85;;;5.00;;
25503;SDS011;13410;52.114;5.718;2023-04-19T06:39:30;7.85;;;5.00;;
25503;SDS011;13410;52.114;5.718;2023-04-19T06:41:55;9.05;;;4.97;;
25503;SDS011;13410;52.114;5.718;2023-04-19T06:44:21;10.10;;;4.60;;
25503;SDS011;13410;52.114;5.718;2023-04-19T06:46:46;7.93;;;3.80;;
25503;SDS011;13410;52.114;5.718;2023-04-19T06:49:15;9.10;;;3.92;;
25503;SDS011;13410;52.114;5.718;2023-04-19T06:51:40;5.45;;;3.17;;
25503;SDS011;13410;52.114;5.718;2023-04-19T06:54:06;4.03;;;3.03;;
25503;SDS011;13410;52.114;5.718;2023-04-19T06:56:38;7.88;;;3.78;;
25503;SDS011;13410;52.114;5.718;2023-04-19T06:59:11;5.78;;;2.70;;
25503;SDS011;13410;52.114;5.718;2023-04-19T07:01:41;7.73;;;3.33;;
25503;SDS011;13410;52.114;5.718;2023-04-19T07:04:08;8.20;;;3.58;;
25503;SDS011;13410;52.114;5.718;2023-04-19T07:06:34;7.40;;;4.05;;
25503;SDS011;13410;52.114;5.718;2023-04-19T07:09:00;9.90;;;4.00;;
25503;SDS011;13410;52.114;5.718;2023-04-19T07:11:26;5.30;;;2.13;;
25503;SDS011;13410;52.114;5.718;2023-04-19T07:13:51;7.97;;;2.75;;
25503;SDS011;13410;52.114;5.718;2023-04-19T07:16:17;4.03;;;2.55;;
25503;SDS011;13410;52.114;5.718;2023-04-19T07:18:42;4.03;;;2.53;;
25503;SDS011;13410;52.114;5.718;2023-04-19T07:21:08;3.97;;;2.22;;
25503;SDS011;13410;52.114;5.718;2023-04-19T07:23:34;8.82;;;3.60;;
25503;SDS011;13410;52.114;5.718;2023-04-19T07:26:00;7.63;;;2.63;;
25503;SDS011;13410;52.114;5.718;2023-04-19T07:28:27;5.95;;;2.20;;
25503;SDS011;13410;52.114;5.718;2023-04-19T07:30:53;2.90;;;1.92;;
25503;SDS011;13410;52.114;5.718;2023-04-19T07:33:19;7.95;;;2.88;;
25503;SDS011;13410;52.114;5.718;2023-04-19T07:35:45;9.00;;;3.15;;
25503;SDS011;13410;52.114;5.718;2023-04-19T07:38:10;6.00;;;2.78;;
25503;SDS011;13410;52.114;5.718;2023-04-19T07:40:36;2.20;;;1.33;;
25503;SDS011;13410;52.114;5.718;2023-04-19T07:43:02;4.57;;;2.75;;
25503;SDS011;13410;52.114;5.718;2023-04-19T07:45:29;7.68;;;3.15;;
25503;SDS011;13410;52.114;5.718;2023-04-19T07:47:55;7.32;;;2.67;;
25503;SDS011;13410;52.114;5.718;2023-04-19T07:50:20;5.13;;;3.05;;
25503;SDS011;13410;52.114;5.718;2023-04-19T07:52:46;9.00;;;2.45;;
25503;SDS011;13410;52.114;5.718;2023-04-19T07:55:11;3.80;;;2.08;;
25503;SDS011;13410;52.114;5.718;2023-04-19T07:57:37;7.50;;;2.92;;
25503;SDS011;13410;52.114;5.718;2023-04-19T08:00:03;4.25;;;2.25;;
25503;SDS011;13410;52.114;5.718;2023-04-19T08:02:28;4.72;;;2.28;;
25503;SDS011;13410;52.114;5.718;2023-04-19T08:04:54;4.55;;;2.53;;
25503;SDS011;13410;52.114;5.718;2023-04-19T08:07:21;4.78;;;1.98;;
25503;SDS011;13410;52.114;5.718;2023-04-19T08:09:47;6.70;;;2.10;;
25503;SDS011;13410;52.114;5.718;2023-04-19T08:12:14;4.68;;;2.63;;
25503;SDS011;13410;52.114;5.718;2023-04-19T08:14:40;5.60;;;2.58;;
25503;SDS011;13410;52.114;5.718;2023-04-19T08:17:06;7.10;;;1.85;;
25503;SDS011;13410;52.114;5.718;2023-04-19T08:19:32;2.60;;;1.15;;
25503;SDS011;13410;52.114;5.718;2023-04-19T08:21:57;5.88;;;1.90;;
25503;SDS011;13410;52.114;5.718;2023-04-19T08:24:23;6.65;;;1.35;;
25503;SDS011;13410;52.114;5.718;2023-04-19T08:26:49;3.70;;;1.80;;
25503;SDS011;13410;52.114;5.718;2023-04-19T08:29:21;7.18;;;2.15;;
25503;SDS011;13410;52.114;5.718;2023-04-19T08:31:47;8.55;;;2.97;;
25503;SDS011;13410;52.114;5.718;2023-04-19T08:34:12;3.80;;;1.77;;
25503;SDS011;13410;52.114;5.718;2023-04-19T08:36:38;4.38;;;1.33;;
25503;SDS011;13410;52.114;5.718;2023-04-19T08:39:04;6.93;;;2.10;;
25503;SDS011;13410;52.114;5.718;2023-04-19T08:41:29;5.28;;;1.70;;
25503;SDS011;13410;52.114;5.718;2023-04-19T08:43:55;3.70;;;1.42;;
25503;SDS011;13410;52.114;5.718;2023-04-19T08:46:22;3.85;;;1.80;;
25503;SDS011;13410;52.114;5.718;2023-04-19T08:48:50;2.92;;;1.25;;
25503;SDS011;13410;52.114;5.718;2023-04-19T08:51:16;4.65;;;1.45;;
25503;SDS011;13410;52.114;5.718;2023-04-19T08:53:43;5.18;;;1.65;;
25503;SDS011;13410;52.114;5.718;2023-04-19T08:56:10;4.40;;;1.80;;
25503;SDS011;13410;52.114;5.718;2023-04-19T08:58:36;6.05;;;1.85;;
25503;SDS011;13410;52.114;5.718;2023-04-19T09:01:05;2.53;;;1.20;;
25503;SDS011;13410;52.114;5.718;2023-04-19T09:03:32;5.97;;;1.60;;
25503;SDS011;13410;52.114;5.718;2023-04-19T09:05:59;4.70;;;1.65;;
25503;SDS011;13410;52.114;5.718;2023-04-19T09:08:26;3.55;;;1.70;;
25503;SDS011;13410;52.114;5.718;2023-04-19T09:10:54;3.05;;;0.98;;
25503;SDS011;13410;52.114;5.718;2023-04-19T09:13:21;3.25;;;1.00;;
25503;SDS011;13410;52.114;5.718;2023-04-19T09:15:47;5.03;;;1.40;;
25503;SDS011;13410;52.114;5.718;2023-04-19T09:18:16;2.90;;;1.40;;
25503;SDS011;13410;52.114;5.718;2023-04-19T09:20:43;16.30;;;1.80;;
25503;SDS011;13410;52.114;5.718;2023-04-19T09:23:13;5.65;;;1.58;;
25503;SDS011;13410;52.114;5.718;2023-04-19T09:25:59;4.22;;;1.70;;
25503;SDS011;13410;52.114;5.718;2023-04-19T09:28:29;4.35;;;1.45;;
25503;SDS011;13410;52.114;5.718;2023-04-19T09:30:55;5.15;;;1.40;;
25503;SDS011;13410;52.114;5.718;2023-04-19T09:33:31;2.38;;;1.02;;
25503;SDS011;13410;52.114;5.718;2023-04-19T09:35:59;3.10;;;1.30;;
25503;SDS011;13410;52.114;5.718;2023-04-19T09:38:25;4.03;;;1.48;;
25503;SDS011;13410;52.114;5.718;2023-04-19T09:40:51;2.63;;;0.95;;
25503;SDS011;13410;52.114;5.718;2023-04-19T09:43:23;7.47;;;1.20;;
25503;SDS011;13410;52.114;5.718;2023-04-19T09:45:52;2.97;;;1.40;;
25503;SDS011;13410;52.114;5.718;2023-04-19T09:48:17;5.03;;;1.70;;
25503;SDS011;13410;52.114;5.718;2023-04-19T09:50:50;2.50;;;1.20;;
25503;SDS011;13410;52.114;5.718;2023-04-19T09:53:20;6.00;;;1.80;;
25503;SDS011;13410;52.114;5.718;2023-04-19T09:55:50;3.37;;;1.40;;
25503;SDS011;13410;52.114;5.718;2023-04-19T09:58:16;3.10;;;1.13;;
25503;SDS011;13410;52.114;5.718;2023-04-19T10:00:43;2.33;;;1.17;;
25503;SDS011;13410;52.114;5.718;2023-04-19T10:03:12;5.03;;;2.20;;
25503;SDS011;13410;52.114;5.718;2023-04-19T10:05:39;3.60;;;1.23;;
25503;SDS011;13410;52.114;5.718;2023-04-19T10:08:06;8.00;;;1.30;;
25503;SDS011;13410;52.114;5.718;2023-04-19T10:10:32;3.38;;;1.60;;
25503;SDS011;13410;52.114;5.718;2023-04-19T10:12:58;6.53;;;1.42;;
25503;SDS011;13410;52.114;5.718;2023-04-19T10:15:27;7.68;;;1.27;;
25503;SDS011;13410;52.114;5.718;2023-04-19T10:17:55;5.75;;;1.10;;
25503;SDS011;13410;52.114;5.718;2023-04-19T10:20:35;3.03;;;0.98;;
25503;SDS011;13410;52.114;5.718;2023-04-19T10:23:17;4.18;;;1.15;;
25503;SDS011;13410;52.114;5.718;2023-04-19T10:25:44;4.15;;;1.83;;
25503;SDS011;13410;52.114;5.718;2023-04-19T10:28:11;4.15;;;1.80;;
25503;SDS011;13410;52.114;5.718;2023-04-19T10:30:51;7.75;;;1.63;;
25503;SDS011;13410;52.114;5.718;2023-04-19T10:33:30;3.92;;;1.42;;
25503;SDS011;13410;52.114;5.718;2023-04-19T10:36:00;4.60;;;1.50;;
25503;SDS011;13410;52.114;5.718;2023-04-19T10:41:03;2.42;;;1.42;;
25503;SDS011;13410;52.114;5.718;2023-04-19T10:43:35;7.13;;;1.20;;
25503;SDS011;13410;52.114;5.718;2023-04-19T10:48:57;3.83;;;1.60;;
25503;SDS011;13410;52.114;5.718;2023-04-19T10:54:01;4.72;;;1.40;;
25503;SDS011;13410;52.114;5.718;2023-04-19T11:04:02;3.97;;;1.60;;
25503;SDS011;13410;52.114;5.718;2023-04-19T11:06:27;3.53;;;2.20;;
25503;SDS011;13410;52.114;5.718;2023-04-19T11:08:53;4.93;;;2.70;;
25503;SDS011;13410;52.114;5.718;2023-04-19T11:11:19;5.15;;;2.17;;
25503;SDS011;13410;52.114;5.718;2023-04-19T11:13:49;6.10;;;2.00;;
25503;SDS011;13410;52.114;5.718;2023-04-19T11:16:15;8.38;;;2.53;;
25503;SDS011;13410;52.114;5.718;2023-04-19T11:18:40;2.58;;;1.40;;
25503;SDS011;13410;52.114;5.718;2023-04-19T11:21:06;3.72;;;1.70;;
25503;SDS011;13410;52.114;5.718;2023-04-19T11:23:36;5.63;;;2.00;;
25503;SDS011;13410;52.114;5.718;2023-04-19T11:26:02;5.13;;;1.90;;
25503;SDS011;13410;52.114;5.718;2023-04-19T11:28:27;6.93;;;1.65;;
25503;SDS011;13410;52.114;5.718;2023-04-19T11:30:53;5.10;;;1.80;;
25503;SDS011;13410;52.114;5.718;2023-04-19T11:33:20;3.20;;;1.95;;
25503;SDS011;13410;52.114;5.718;2023-04-19T11:35:49;6.40;;;1.85;;
25503;SDS011;13410;52.114;5.718;2023-04-19T11:38:15;7.18;;;2.30;;
25503;SDS011;13410;52.114;5.718;2023-04-19T11:40:40;6.22;;;2.22;;
25503;SDS011;13410;52.114;5.718;2023-04-19T11:43:06;6.35;;;2.28;;
25503;SDS011;13410;52.114;5.718;2023-04-19T11:45:33;11.02;;;2.28;;
25503;SDS011;13410;52.114;5.718;2023-04-19T11:48:00;6.55;;;2.35;;
25503;SDS011;13410;52.114;5.718;2023-04-19T11:50:35;3.38;;;2.40;;
25503;SDS011;13410;52.114;5.718;2023-04-19T11:53:26;2.75;;;1.52;;
25503;SDS011;13410;52.114;5.718;2023-04-19T11:55:56;5.50;;;2.50;;
25503;SDS011;13410;52.114;5.718;2023-04-19T11:58:23;4.57;;;2.38;;
25503;SDS011;13410;52.114;5.718;2023-04-19T12:00:50;7.80;;;2.80;;
25503;SDS011;13410;52.114;5.718;2023-04-19T12:03:19;6.25;;;2.70;;
25503;SDS011;13410;52.114;5.718;2023-04-19T12:05:55;9.38;;;2.70;;
25503;SDS011;13410;52.114;5.718;2023-04-19T12:08:29;4.85;;;2.00;;
25503;SDS011;13410;52.114;5.718;2023-04-19T12:10:59;5.97;;;2.72;;
25503;SDS011;13410;52.114;5.718;2023-04-19T12:13:25;3.97;;;2.10;;
25503;SDS011;13410;52.114;5.718;2023-04-19T12:15:50;3.47;;;1.95;;
25503;SDS011;13410;52.114;5.718;2023-04-19T12:18:16;8.18;;;3.13;;
25503;SDS011;13410;52.114;5.718;2023-04-19T12:20:46;4.47;;;2.50;;
25503;SDS011;13410;52.114;5.718;2023-04-19T12:23:13;4.32;;;1.83;;
25503;SDS011;13410;52.114;5.718;2023-04-19T12:25:40;5.18;;;2.60;;
25503;SDS011;13410;52.114;5.718;2023-04-19T12:28:06;6.50;;;2.92;;
25503;SDS011;13410;52.114;5.718;2023-04-19T12:30:32;4.57;;;2.75;;
25503;SDS011;13410;52.114;5.718;2023-04-19T12:33:00;13.60;;;3.40;;
25503;SDS011;13410;52.114;5.718;2023-04-19T12:35:26;8.63;;;2.95;;
25503;SDS011;13410;52.114;5.718;2023-04-19T12:37:57;3.40;;;1.55;;
25503;SDS011;13410;52.114;5.718;2023-04-19T12:40:23;7.97;;;2.40;;
25503;SDS011;13410;52.114;5.718;2023-04-19T12:42:50;1.42;;;1.25;;
25503;SDS011;13410;52.114;5.718;2023-04-19T12:45:16;3.92;;;3.00;;
25503;SDS011;13410;52.114;5.718;2023-04-19T12:47:43;7.30;;;2.70;;
25503;SDS011;13410;52.114;5.718;2023-04-19T12:50:13;6.43;;;3.20;;
25503;SDS011;13410;52.114;5.718;2023-04-19T12:52:40;4.60;;;2.55;;
25503;SDS011;13410;52.114;5.718;2023-04-19T12:55:06;4.88;;;3.08;;
25503;SDS011;13410;52.114;5.718;2023-04-19T12:57:32;5.70;;;3.65;;
25503;SDS011;13410;52.114;5.718;2023-04-19T12:59:57;4.85;;;3.20;;
25503;SDS011;13410;52.114;5.718;2023-04-19T13:02:23;5.68;;;3.03;;
25503;SDS011;13410;52.114;5.718;2023-04-19T13:04:49;6.70;;;3.30;;
25503;SDS011;13410;52.114;5.718;2023-04-19T13:07:15;3.42;;;2.35;;
25503;SDS011;13410;52.114;5.718;2023-04-19T13:09:40;3.92;;;2.25;;
25503;SDS011;13410;52.114;5.718;2023-04-19T13:12:06;4.32;;;2.95;;
25503;SDS011;13410;52.114;5.718;2023-04-19T13:14:32;6.88;;;2.08;;
25503;SDS011;13410;52.114;5.718;2023-04-19T13:16:58;7.80;;;3.05;;
25503;SDS011;13410;52.114;5.718;2023-04-19T13:19:23;5.65;;;2.70;;
25503;SDS011;13410;52.114;5.718;2023-04-19T13:21:49;4.97;;;2.72;;
25503;SDS011;13410;52.114;5.718;2023-04-19T13:24:14;5.07;;;2.90;;
25503;SDS011;13410;52.114;5.718;2023-04-19T13:26:40;4.82;;;2.67;;
25503;SDS011;13410;52.114;5.718;2023-04-19T13:29:06;5.05;;;2.63;;
25503;SDS011;13410;52.114;5.718;2023-04-19T13:31:32;6.70;;;3.15;;
25503;SDS011;13410;52.114;5.718;2023-04-19T13:33:58;4.75;;;2.50;;
25503;SDS011;13410;52.114;5.718;2023-04-19T13:36:25;4.93;;;2.50;;
25503;SDS011;13410;52.114;5.718;2023-04-19T13:38:52;5.13;;;2.17;;
25503;SDS011;13410;52.114;5.718;2023-04-19T13:41:18;5.38;;;1.73;;
25503;SDS011;13410;52.114;5.718;2023-04-19T13:43:43;4.20;;;2.45;;
25503;SDS011;13410;52.114;5.718;2023-04-19T13:46:09;5.65;;;2.30;;
25503;SDS011;13410;52.114;5.718;2023-04-19T13:48:35;5.68;;;2.45;;
25503;SDS011;13410;52.114;5.718;2023-04-19T13:51:02;3.17;;;1.92;;
25503;SDS011;13410;52.114;5.718;2023-04-19T13:53:28;4.72;;;2.33;;
25503;SDS011;13410;52.114;5.718;2023-04-19T13:55:54;3.08;;;2.08;;
25503;SDS011;13410;52.114;5.718;2023-04-19T13:58:20;3.10;;;1.95;;
25503;SDS011;13410;52.114;5.718;2023-04-19T14:00:48;6.53;;;2.50;;
25503;SDS011;13410;52.114;5.718;2023-04-19T14:03:14;3.75;;;2.30;;
25503;SDS011;13410;52.114;5.718;2023-04-19T14:05:40;3.78;;;2.28;;
25503;SDS011;13410;52.114;5.718;2023-04-19T14:08:06;5.78;;;2.40;;
25503;SDS011;13410;52.114;5.718;2023-04-19T14:10:32;2.78;;;2.10;;
25503;SDS011;13410;52.114;5.718;2023-04-19T14:12:58;5.32;;;3.03;;
25503;SDS011;13410;52.114;5.718;2023-04-19T14:15:24;6.95;;;3.00;;
25503;SDS011;13410;52.114;5.718;2023-04-19T14:17:49;5.95;;;2.67;;
25503;SDS011;13410;52.114;5.718;2023-04-19T14:20:16;3.72;;;2.35;;
25503;SDS011;13410;52.114;5.718;2023-04-19T14:22:41;8.18;;;2.75;;
25503;SDS011;13410;52.114;5.718;2023-04-19T14:25:08;8.30;;;2.90;;
25503;SDS011;13410;52.114;5.718;2023-04-19T14:27:33;5.97;;;2.60;;
25503;SDS011;13410;52.114;5.718;2023-04-19T14:29:59;6.05;;;2.60;;
25503;SDS011;13410;52.114;5.718;2023-04-19T14:32:25;6.55;;;2.45;;
25503;SDS011;13410;52.114;5.718;2023-04-19T14:34:51;4.50;;;2.17;;
25503;SDS011;13410;52.114;5.718;2023-04-19T14:37:17;5.00;;;2.30;;
25503;SDS011;13410;52.114;5.718;2023-04-19T14:39:45;4.88;;;2.17;;
25503;SDS011;13410;52.114;5.718;2023-04-19T14:42:12;3.33;;;2.60;;
25503;SDS011;13410;52.114;5.718;2023-04-19T14:44:38;5.68;;;2.70;;
25503;SDS011;13410;52.114;5.718;2023-04-19T14:47:04;4.72;;;2.92;;
25503;SDS011;13410;52.114;5.718;2023-04-19T14:49:29;4.03;;;2.60;;